Terminal Aerodrome Forecast
Issued by NWS Central Illinois

Home | Current Version | Previous Version | Text Only | Print | Product List | Glossary On
Versions: 1 2 3 4 5 6 7 8 9 10 11 12 13 14 15 16 17 18 19 20 21
000
FTUS43 KILX 170800 AAA
TAFSPI
TAF AMD
KSPI 170850Z 1709/1806 18011KT P6SM BKN250 WS020/21045KT
     FM171500 24010KT P6SM SCT040 OVC150
     FM172100 27006KT P6SM OVC080
     FM180200 VRB03KT P6SM OVC050=

USA.gov is the U.S. government's official web portal to all federal, state and local government web resources and services.